sensor_id;sensor_type;location;lat;lon;timestamp;P1;durP1;ratioP1;P2;durP2;ratioP2
53871;SDS011;39787;53.174;5.798;2022-08-01T00:00:04;6.43;;;2.97;;
53871;SDS011;39787;53.174;5.798;2022-08-01T00:01:06;5.25;;;2.67;;
53871;SDS011;39787;53.174;5.798;2022-08-01T00:02:07;5.70;;;2.97;;
53871;SDS011;39787;53.174;5.798;2022-08-01T00:03:07;4.20;;;2.67;;
53871;SDS011;39787;53.174;5.798;2022-08-01T00:04:08;4.60;;;2.70;;
53871;SDS011;39787;53.174;5.798;2022-08-01T00:05:09;6.93;;;3.20;;
53871;SDS011;39787;53.174;5.798;2022-08-01T00:06:09;5.75;;;3.20;;
53871;SDS011;39787;53.174;5.798;2022-08-01T00:07:10;6.00;;;3.20;;
53871;SDS011;39787;53.174;5.798;2022-08-01T00:08:10;7.13;;;3.00;;
53871;SDS011;39787;53.174;5.798;2022-08-01T00:09:11;3.20;;;2.90;;
53871;SDS011;39787;53.174;5.798;2022-08-01T00:10:12;9.80;;;3.63;;
53871;SDS011;39787;53.174;5.798;2022-08-01T00:11:13;6.15;;;3.22;;
53871;SDS011;39787;53.174;5.798;2022-08-01T00:12:14;7.87;;;3.33;;
53871;SDS011;39787;53.174;5.798;2022-08-01T00:13:14;8.87;;;3.37;;
53871;SDS011;39787;53.174;5.798;2022-08-01T00:14:15;6.03;;;3.03;;
53871;SDS011;39787;53.174;5.798;2022-08-01T00:15:16;10.13;;;3.60;;
53871;SDS011;39787;53.174;5.798;2022-08-01T00:16:16;11.00;;;3.33;;
53871;SDS011;39787;53.174;5.798;2022-08-01T00:17:17;7.43;;;3.53;;
53871;SDS011;39787;53.174;5.798;2022-08-01T00:18:17;8.33;;;3.47;;
53871;SDS011;39787;53.174;5.798;2022-08-01T00:19:18;4.87;;;2.83;;
53871;SDS011;39787;53.174;5.798;2022-08-01T00:20:18;8.70;;;3.50;;
53871;SDS011;39787;53.174;5.798;2022-08-01T00:21:19;7.13;;;2.97;;
53871;SDS011;39787;53.174;5.798;2022-08-01T00:22:19;9.30;;;3.60;;
53871;SDS011;39787;53.174;5.798;2022-08-01T00:23:20;5.47;;;2.70;;
53871;SDS011;39787;53.174;5.798;2022-08-01T00:24:20;11.13;;;3.07;;
53871;SDS011;39787;53.174;5.798;2022-08-01T00:25:21;9.53;;;3.07;;
53871;SDS011;39787;53.174;5.798;2022-08-01T00:26:21;7.07;;;3.03;;
53871;SDS011;39787;53.174;5.798;2022-08-01T00:27:22;9.20;;;3.40;;
53871;SDS011;39787;53.174;5.798;2022-08-01T00:28:22;8.00;;;3.33;;
53871;SDS011;39787;53.174;5.798;2022-08-01T00:29:23;9.77;;;4.20;;
53871;SDS011;39787;53.174;5.798;2022-08-01T00:30:23;10.80;;;3.43;;
53871;SDS011;39787;53.174;5.798;2022-08-01T00:31:24;9.33;;;3.87;;
53871;SDS011;39787;53.174;5.798;2022-08-01T00:32:24;14.23;;;3.60;;
53871;SDS011;39787;53.174;5.798;2022-08-01T00:33:25;5.15;;;3.47;;
53871;SDS011;39787;53.174;5.798;2022-08-01T00:34:25;8.47;;;3.73;;
53871;SDS011;39787;53.174;5.798;2022-08-01T00:35:26;10.50;;;3.80;;
53871;SDS011;39787;53.174;5.798;2022-08-01T00:36:26;7.73;;;3.40;;
53871;SDS011;39787;53.174;5.798;2022-08-01T00:37:27;11.13;;;3.83;;
53871;SDS011;39787;53.174;5.798;2022-08-01T00:38:27;9.17;;;3.93;;
53871;SDS011;39787;53.174;5.798;2022-08-01T00:39:28;10.93;;;3.70;;
53871;SDS011;39787;53.174;5.798;2022-08-01T00:40:28;8.13;;;4.00;;
53871;SDS011;39787;53.174;5.798;2022-08-01T00:41:29;7.93;;;3.27;;
53871;SDS011;39787;53.174;5.798;2022-08-01T00:42:29;10.33;;;4.20;;
53871;SDS011;39787;53.174;5.798;2022-08-01T00:43:30;8.10;;;3.40;;
53871;SDS011;39787;53.174;5.798;2022-08-01T00:44:30;10.10;;;3.90;;
53871;SDS011;39787;53.174;5.798;2022-08-01T00:45:31;12.17;;;3.97;;
53871;SDS011;39787;53.174;5.798;2022-08-01T00:46:32;13.80;;;4.03;;
53871;SDS011;39787;53.174;5.798;2022-08-01T00:48:33;9.75;;;3.60;;
53871;SDS011;39787;53.174;5.798;2022-08-01T00:49:34;12.73;;;3.30;;
53871;SDS011;39787;53.174;5.798;2022-08-01T00:50:35;10.00;;;3.85;;
53871;SDS011;39787;53.174;5.798;2022-08-01T00:51:35;11.83;;;3.47;;
53871;SDS011;39787;53.174;5.798;2022-08-01T00:52:36;7.70;;;3.47;;
53871;SDS011;39787;53.174;5.798;2022-08-01T00:53:38;8.45;;;2.90;;
53871;SDS011;39787;53.174;5.798;2022-08-01T00:55:39;9.25;;;3.08;;
53871;SDS011;39787;53.174;5.798;2022-08-01T00:56:40;7.17;;;3.00;;
53871;SDS011;39787;53.174;5.798;2022-08-01T00:57:41;9.13;;;3.23;;
53871;SDS011;39787;53.174;5.798;2022-08-01T00:58:42;13.32;;;3.13;;
53871;SDS011;39787;53.174;5.798;2022-08-01T00:59:42;9.32;;;3.05;;
53871;SDS011;39787;53.174;5.798;2022-08-01T01:00:43;11.33;;;3.40;;
53871;SDS011;39787;53.174;5.798;2022-08-01T01:01:44;6.70;;;2.93;;
53871;SDS011;39787;53.174;5.798;2022-08-01T01:02:44;7.00;;;3.03;;
53871;SDS011;39787;53.174;5.798;2022-08-01T01:03:46;7.70;;;3.03;;
53871;SDS011;39787;53.174;5.798;2022-08-01T01:04:47;14.35;;;3.05;;
53871;SDS011;39787;53.174;5.798;2022-08-01T01:05:48;7.13;;;3.00;;
53871;SDS011;39787;53.174;5.798;2022-08-01T01:08:08;7.50;;;2.57;;
53871;SDS011;39787;53.174;5.798;2022-08-01T01:09:38;8.27;;;3.00;;
53871;SDS011;39787;53.174;5.798;2022-08-01T01:11:01;7.35;;;2.97;;
53871;SDS011;39787;53.174;5.798;2022-08-01T01:13:44;6.97;;;3.00;;
53871;SDS011;39787;53.174;5.798;2022-08-01T01:16:05;5.72;;;2.55;;
53871;SDS011;39787;53.174;5.798;2022-08-01T01:17:10;8.15;;;2.65;;
53871;SDS011;39787;53.174;5.798;2022-08-01T01:18:20;10.57;;;2.90;;
53871;SDS011;39787;53.174;5.798;2022-08-01T01:19:30;8.95;;;2.55;;
53871;SDS011;39787;53.174;5.798;2022-08-01T01:20:36;9.73;;;2.83;;
53871;SDS011;39787;53.174;5.798;2022-08-01T01:23:57;11.63;;;2.55;;
53871;SDS011;39787;53.174;5.798;2022-08-01T01:25:26;7.70;;;2.08;;
53871;SDS011;39787;53.174;5.798;2022-08-01T01:30:15;9.10;;;2.05;;
53871;SDS011;39787;53.174;5.798;2022-08-01T01:31:16;6.57;;;2.50;;
53871;SDS011;39787;53.174;5.798;2022-08-01T01:32:35;8.55;;;2.70;;
53871;SDS011;39787;53.174;5.798;2022-08-01T01:33:39;11.30;;;2.70;;
53871;SDS011;39787;53.174;5.798;2022-08-01T01:34:43;14.85;;;3.30;;
53871;SDS011;39787;53.174;5.798;2022-08-01T01:35:46;9.40;;;2.80;;
53871;SDS011;39787;53.174;5.798;2022-08-01T01:36:51;8.15;;;3.10;;
53871;SDS011;39787;53.174;5.798;2022-08-01T01:37:56;8.43;;;2.95;;
53871;SDS011;39787;53.174;5.798;2022-08-01T01:39:01;20.20;;;3.83;;
53871;SDS011;39787;53.174;5.798;2022-08-01T01:40:02;10.60;;;2.88;;
53871;SDS011;39787;53.174;5.798;2022-08-01T01:41:04;16.33;;;3.53;;
53871;SDS011;39787;53.174;5.798;2022-08-01T01:42:06;13.65;;;3.47;;
53871;SDS011;39787;53.174;5.798;2022-08-01T01:43:08;12.63;;;3.17;;
53871;SDS011;39787;53.174;5.798;2022-08-01T01:44:11;16.73;;;3.05;;
53871;SDS011;39787;53.174;5.798;2022-08-01T01:45:12;16.38;;;4.10;;
53871;SDS011;39787;53.174;5.798;2022-08-01T01:46:15;14.02;;;3.47;;
53871;SDS011;39787;53.174;5.798;2022-08-01T01:47:18;18.35;;;3.70;;
53871;SDS011;39787;53.174;5.798;2022-08-01T01:48:20;17.52;;;3.53;;
53871;SDS011;39787;53.174;5.798;2022-08-01T01:49:23;16.10;;;3.72;;
53871;SDS011;39787;53.174;5.798;2022-08-01T01:50:25;12.93;;;3.05;;
53871;SDS011;39787;53.174;5.798;2022-08-01T01:51:27;17.75;;;3.83;;
53871;SDS011;39787;53.174;5.798;2022-08-01T01:52:29;17.88;;;3.72;;
53871;SDS011;39787;53.174;5.798;2022-08-01T01:53:32;19.73;;;4.10;;
53871;SDS011;39787;53.174;5.798;2022-08-01T01:54:36;13.63;;;3.70;;
53871;SDS011;39787;53.174;5.798;2022-08-01T01:55:40;17.77;;;4.28;;
53871;SDS011;39787;53.174;5.798;2022-08-01T01:56:43;18.30;;;4.57;;
53871;SDS011;39787;53.174;5.798;2022-08-01T01:57:45;22.92;;;4.25;;
53871;SDS011;39787;53.174;5.798;2022-08-01T01:58:51;18.55;;;4.03;;
53871;SDS011;39787;53.174;5.798;2022-08-01T01:59:54;21.77;;;4.47;;
53871;SDS011;39787;53.174;5.798;2022-08-01T02:00:57;18.80;;;3.63;;
53871;SDS011;39787;53.174;5.798;2022-08-01T02:02:02;17.33;;;3.75;;
53871;SDS011;39787;53.174;5.798;2022-08-01T02:03:04;20.92;;;4.97;;
53871;SDS011;39787;53.174;5.798;2022-08-01T02:04:07;17.83;;;4.13;;
53871;SDS011;39787;53.174;5.798;2022-08-01T02:05:09;14.40;;;3.33;;
53871;SDS011;39787;53.174;5.798;2022-08-01T02:06:11;21.00;;;4.88;;
53871;SDS011;39787;53.174;5.798;2022-08-01T02:07:16;20.00;;;3.80;;
53871;SDS011;39787;53.174;5.798;2022-08-01T02:08:20;22.23;;;4.72;;
53871;SDS011;39787;53.174;5.798;2022-08-01T02:09:23;26.13;;;4.28;;
53871;SDS011;39787;53.174;5.798;2022-08-01T02:10:27;16.00;;;3.75;;
53871;SDS011;39787;53.174;5.798;2022-08-01T02:11:29;19.83;;;3.83;;
53871;SDS011;39787;53.174;5.798;2022-08-01T02:12:32;22.90;;;4.35;;
53871;SDS011;39787;53.174;5.798;2022-08-01T02:13:36;23.52;;;4.60;;
53871;SDS011;39787;53.174;5.798;2022-08-01T02:14:38;13.65;;;3.40;;
53871;SDS011;39787;53.174;5.798;2022-08-01T02:15:39;18.42;;;4.60;;
53871;SDS011;39787;53.174;5.798;2022-08-01T02:16:44;20.52;;;4.55;;
53871;SDS011;39787;53.174;5.798;2022-08-01T02:17:48;18.40;;;3.80;;
53871;SDS011;39787;53.174;5.798;2022-08-01T02:18:50;24.10;;;4.47;;
53871;SDS011;39787;53.174;5.798;2022-08-01T02:19:53;17.40;;;4.53;;
53871;SDS011;39787;53.174;5.798;2022-08-01T02:20:54;23.25;;;4.60;;
53871;SDS011;39787;53.174;5.798;2022-08-01T02:21:57;25.65;;;4.50;;
53871;SDS011;39787;53.174;5.798;2022-08-01T02:23:08;22.05;;;4.03;;
53871;SDS011;39787;53.174;5.798;2022-08-01T02:24:13;17.27;;;3.92;;
53871;SDS011;39787;53.174;5.798;2022-08-01T02:25:32;18.75;;;4.38;;
53871;SDS011;39787;53.174;5.798;2022-08-01T02:26:49;19.50;;;4.47;;
53871;SDS011;39787;53.174;5.798;2022-08-01T02:29:05;20.83;;;4.40;;
53871;SDS011;39787;53.174;5.798;2022-08-01T02:30:07;16.95;;;3.95;;
53871;SDS011;39787;53.174;5.798;2022-08-01T02:31:12;18.48;;;3.83;;
53871;SDS011;39787;53.174;5.798;2022-08-01T02:32:18;14.65;;;3.80;;
53871;SDS011;39787;53.174;5.798;2022-08-01T02:33:24;18.55;;;3.63;;
53871;SDS011;39787;53.174;5.798;2022-08-01T02:34:31;16.95;;;3.63;;
53871;SDS011;39787;53.174;5.798;2022-08-01T02:35:35;14.93;;;3.72;;
53871;SDS011;39787;53.174;5.798;2022-08-01T02:36:40;21.10;;;3.65;;
53871;SDS011;39787;53.174;5.798;2022-08-01T02:37:43;16.92;;;3.90;;
53871;SDS011;39787;53.174;5.798;2022-08-01T02:38:47;16.20;;;3.75;;
53871;SDS011;39787;53.174;5.798;2022-08-01T02:39:49;16.48;;;3.10;;
53871;SDS011;39787;53.174;5.798;2022-08-01T02:40:52;15.48;;;3.75;;
53871;SDS011;39787;53.174;5.798;2022-08-01T02:41:57;20.05;;;4.22;;
53871;SDS011;39787;53.174;5.798;2022-08-01T02:43:01;13.20;;;2.90;;
53871;SDS011;39787;53.174;5.798;2022-08-01T02:44:04;15.63;;;3.50;;
53871;SDS011;39787;53.174;5.798;2022-08-01T02:45:07;13.20;;;3.30;;
53871;SDS011;39787;53.174;5.798;2022-08-01T02:46:11;14.93;;;3.35;;
53871;SDS011;39787;53.174;5.798;2022-08-01T02:47:24;14.80;;;3.15;;
53871;SDS011;39787;53.174;5.798;2022-08-01T02:48:27;17.23;;;3.90;;
53871;SDS011;39787;53.174;5.798;2022-08-01T02:49:33;16.20;;;3.42;;
53871;SDS011;39787;53.174;5.798;2022-08-01T02:50:36;16.10;;;3.67;;
53871;SDS011;39787;53.174;5.798;2022-08-01T02:51:39;17.77;;;3.55;;
53871;SDS011;39787;53.174;5.798;2022-08-01T02:52:42;20.90;;;4.70;;
53871;SDS011;39787;53.174;5.798;2022-08-01T02:53:46;16.80;;;3.72;;
53871;SDS011;39787;53.174;5.798;2022-08-01T02:54:49;11.52;;;3.17;;
53871;SDS011;39787;53.174;5.798;2022-08-01T02:55:51;17.90;;;3.35;;
53871;SDS011;39787;53.174;5.798;2022-08-01T02:56:53;16.20;;;3.67;;
53871;SDS011;39787;53.174;5.798;2022-08-01T02:57:56;13.55;;;3.72;;
53871;SDS011;39787;53.174;5.798;2022-08-01T02:58:58;18.00;;;3.03;;
53871;SDS011;39787;53.174;5.798;2022-08-01T02:59:59;16.23;;;3.30;;
53871;SDS011;39787;53.174;5.798;2022-08-01T03:02:02;15.70;;;3.28;;
53871;SDS011;39787;53.174;5.798;2022-08-01T03:03:03;15.27;;;3.25;;
53871;SDS011;39787;53.174;5.798;2022-08-01T03:04:06;18.77;;;3.70;;
53871;SDS011;39787;53.174;5.798;2022-08-01T03:06:08;14.57;;;3.35;;
53871;SDS011;39787;53.174;5.798;2022-08-01T03:07:09;17.42;;;2.92;;
53871;SDS011;39787;53.174;5.798;2022-08-01T03:08:11;12.30;;;3.88;;
53871;SDS011;39787;53.174;5.798;2022-08-01T03:09:13;10.48;;;2.75;;
53871;SDS011;39787;53.174;5.798;2022-08-01T03:10:15;12.13;;;3.28;;
53871;SDS011;39787;53.174;5.798;2022-08-01T03:11:17;15.85;;;3.38;;
53871;SDS011;39787;53.174;5.798;2022-08-01T03:12:20;13.25;;;3.25;;
53871;SDS011;39787;53.174;5.798;2022-08-01T03:13:25;21.88;;;3.55;;
53871;SDS011;39787;53.174;5.798;2022-08-01T03:14:29;15.60;;;3.40;;
53871;SDS011;39787;53.174;5.798;2022-08-01T03:15:33;18.30;;;3.75;;
53871;SDS011;39787;53.174;5.798;2022-08-01T03:16:36;15.90;;;3.88;;
53871;SDS011;39787;53.174;5.798;2022-08-01T03:17:39;21.38;;;3.55;;
53871;SDS011;39787;53.174;5.798;2022-08-01T03:18:42;17.80;;;3.63;;
53871;SDS011;39787;53.174;5.798;2022-08-01T03:19:45;15.73;;;3.70;;
53871;SDS011;39787;53.174;5.798;2022-08-01T03:20:48;16.92;;;3.67;;
53871;SDS011;39787;53.174;5.798;2022-08-01T03:21:50;14.80;;;3.00;;
53871;SDS011;39787;53.174;5.798;2022-08-01T03:23:52;11.05;;;3.03;;
53871;SDS011;39787;53.174;5.798;2022-08-01T03:24:55;15.18;;;3.67;;
53871;SDS011;39787;53.174;5.798;2022-08-01T03:25:57;17.00;;;3.95;;
53871;SDS011;39787;53.174;5.798;2022-08-01T03:26:59;16.98;;;3.67;;
53871;SDS011;39787;53.174;5.798;2022-08-01T03:28:01;14.20;;;3.28;;
53871;SDS011;39787;53.174;5.798;2022-08-01T03:29:06;19.02;;;3.60;;
53871;SDS011;39787;53.174;5.798;2022-08-01T03:30:10;15.45;;;3.30;;
53871;SDS011;39787;53.174;5.798;2022-08-01T03:31:12;14.65;;;4.45;;
53871;SDS011;39787;53.174;5.798;2022-08-01T03:32:15;19.30;;;3.78;;
53871;SDS011;39787;53.174;5.798;2022-08-01T03:33:17;20.52;;;4.57;;
53871;SDS011;39787;53.174;5.798;2022-08-01T03:34:18;14.70;;;3.73;;
53871;SDS011;39787;53.174;5.798;2022-08-01T03:35:18;18.37;;;4.47;;
53871;SDS011;39787;53.174;5.798;2022-08-01T03:36:21;17.23;;;3.40;;
53871;SDS011;39787;53.174;5.798;2022-08-01T03:37:26;17.63;;;3.88;;
53871;SDS011;39787;53.174;5.798;2022-08-01T03:38:29;17.08;;;3.92;;
53871;SDS011;39787;53.174;5.798;2022-08-01T03:39:37;26.30;;;3.75;;
53871;SDS011;39787;53.174;5.798;2022-08-01T03:40:45;16.90;;;4.00;;
53871;SDS011;39787;53.174;5.798;2022-08-01T03:41:52;22.25;;;4.13;;
53871;SDS011;39787;53.174;5.798;2022-08-01T03:43:02;19.83;;;4.03;;
53871;SDS011;39787;53.174;5.798;2022-08-01T03:44:16;19.70;;;3.95;;
53871;SDS011;39787;53.174;5.798;2022-08-01T03:45:23;13.48;;;3.67;;
53871;SDS011;39787;53.174;5.798;2022-08-01T03:46:29;20.73;;;3.85;;
53871;SDS011;39787;53.174;5.798;2022-08-01T03:47:35;17.40;;;3.55;;
53871;SDS011;39787;53.174;5.798;2022-08-01T03:48:41;20.05;;;4.68;;
53871;SDS011;39787;53.174;5.798;2022-08-01T03:49:47;24.42;;;4.03;;
53871;SDS011;39787;53.174;5.798;2022-08-01T03:50:50;24.30;;;4.40;;
53871;SDS011;39787;53.174;5.798;2022-08-01T03:51:52;17.13;;;3.85;;
53871;SDS011;39787;53.174;5.798;2022-08-01T03:52:53;20.50;;;4.55;;
53871;SDS011;39787;53.174;5.798;2022-08-01T03:53:57;17.83;;;4.07;;
53871;SDS011;39787;53.174;5.798;2022-08-01T03:55:04;20.23;;;4.68;;
53871;SDS011;39787;53.174;5.798;2022-08-01T03:56:06;19.40;;;3.33;;
53871;SDS011;39787;53.174;5.798;2022-08-01T03:57:08;17.50;;;3.55;;
53871;SDS011;39787;53.174;5.798;2022-08-01T03:58:10;19.67;;;4.25;;
53871;SDS011;39787;53.174;5.798;2022-08-01T03:59:12;19.27;;;3.47;;
53871;SDS011;39787;53.174;5.798;2022-08-01T04:00:15;18.65;;;3.85;;
53871;SDS011;39787;53.174;5.798;2022-08-01T04:01:16;23.20;;;3.90;;
53871;SDS011;39787;53.174;5.798;2022-08-01T04:02:17;22.27;;;3.97;;
53871;SDS011;39787;53.174;5.798;2022-08-01T04:03:19;15.43;;;3.95;;
53871;SDS011;39787;53.174;5.798;2022-08-01T04:04:19;21.52;;;3.75;;
53871;SDS011;39787;53.174;5.798;2022-08-01T04:05:20;19.03;;;3.47;;
53871;SDS011;39787;53.174;5.798;2022-08-01T04:06:21;13.93;;;3.50;;
53871;SDS011;39787;53.174;5.798;2022-08-01T04:07:25;17.67;;;4.00;;
53871;SDS011;39787;53.174;5.798;2022-08-01T04:08:36;25.05;;;5.35;;
53871;SDS011;39787;53.174;5.798;2022-08-01T04:09:37;28.63;;;4.47;;
53871;SDS011;39787;53.174;5.798;2022-08-01T04:10:38;16.80;;;3.47;;
53871;SDS011;39787;53.174;5.798;2022-08-01T04:11:39;24.13;;;3.90;;
53871;SDS011;39787;53.174;5.798;2022-08-01T04:12:40;21.75;;;3.80;;
53871;SDS011;39787;53.174;5.798;2022-08-01T04:13:40;22.80;;;4.43;;
53871;SDS011;39787;53.174;5.798;2022-08-01T04:14:41;19.03;;;4.13;;
53871;SDS011;39787;53.174;5.798;2022-08-01T04:15:41;20.00;;;3.67;;
53871;SDS011;39787;53.174;5.798;2022-08-01T04:16:42;18.87;;;3.77;;
53871;SDS011;39787;53.174;5.798;2022-08-01T04:17:42;24.10;;;4.77;;
53871;SDS011;39787;53.174;5.798;2022-08-01T04:18:43;25.70;;;4.20;;
53871;SDS011;39787;53.174;5.798;2022-08-01T04:19:43;23.20;;;3.97;;
53871;SDS011;39787;53.174;5.798;2022-08-01T04:20:47;17.92;;;3.88;;
53871;SDS011;39787;53.174;5.798;2022-08-01T04:21:48;21.63;;;4.40;;
53871;SDS011;39787;53.174;5.798;2022-08-01T04:22:48;22.08;;;4.85;;
53871;SDS011;39787;53.174;5.798;2022-08-01T04:23:49;23.77;;;4.40;;
53871;SDS011;39787;53.174;5.798;2022-08-01T04:24:53;23.48;;;5.18;;
53871;SDS011;39787;53.174;5.798;2022-08-01T04:25:57;28.52;;;4.30;;
53871;SDS011;39787;53.174;5.798;2022-08-01T04:27:03;19.10;;;3.92;;
53871;SDS011;39787;53.174;5.798;2022-08-01T04:28:08;20.50;;;3.88;;
53871;SDS011;39787;53.174;5.798;2022-08-01T04:29:12;22.90;;;4.15;;
53871;SDS011;39787;53.174;5.798;2022-08-01T04:30:16;19.70;;;4.13;;
53871;SDS011;39787;53.174;5.798;2022-08-01T04:31:19;25.17;;;4.03;;
53871;SDS011;39787;53.174;5.798;2022-08-01T04:32:20;23.48;;;4.57;;
53871;SDS011;39787;53.174;5.798;2022-08-01T04:33:21;22.75;;;3.95;;
53871;SDS011;39787;53.174;5.798;2022-08-01T04:34:23;24.25;;;4.05;;
53871;SDS011;39787;53.174;5.798;2022-08-01T04:35:27;16.70;;;3.85;;
53871;SDS011;39787;53.174;5.798;2022-08-01T04:36:29;20.33;;;3.67;;
53871;SDS011;39787;53.174;5.798;2022-08-01T04:37:32;24.65;;;4.55;;
53871;SDS011;39787;53.174;5.798;2022-08-01T04:38:34;19.55;;;3.83;;
53871;SDS011;39787;53.174;5.798;2022-08-01T04:39:37;20.80;;;4.40;;
53871;SDS011;39787;53.174;5.798;2022-08-01T04:40:40;26.70;;;5.00;;
53871;SDS011;39787;53.174;5.798;2022-08-01T04:41:41;27.13;;;4.28;;
53871;SDS011;39787;53.174;5.798;2022-08-01T04:42:43;23.65;;;4.45;;
53871;SDS011;39787;53.174;5.798;2022-08-01T04:43:43;23.30;;;4.10;;
53871;SDS011;39787;53.174;5.798;2022-08-01T04:44:44;28.08;;;4.07;;
53871;SDS011;39787;53.174;5.798;2022-08-01T04:45:45;18.37;;;4.30;;
53871;SDS011;39787;53.174;5.798;2022-08-01T04:46:47;25.00;;;4.88;;
53871;SDS011;39787;53.174;5.798;2022-08-01T04:47:49;22.10;;;4.78;;
53871;SDS011;39787;53.174;5.798;2022-08-01T04:48:51;22.98;;;4.57;;
53871;SDS011;39787;53.174;5.798;2022-08-01T04:50:53;23.75;;;5.00;;
53871;SDS011;39787;53.174;5.798;2022-08-01T04:51:54;24.13;;;4.53;;
53871;SDS011;39787;53.174;5.798;2022-08-01T04:52:55;25.15;;;4.22;;
53871;SDS011;39787;53.174;5.798;2022-08-01T04:53:56;28.17;;;5.50;;
53871;SDS011;39787;53.174;5.798;2022-08-01T04:54:56;17.90;;;4.23;;
53871;SDS011;39787;53.174;5.798;2022-08-01T04:55:57;28.13;;;4.77;;
53871;SDS011;39787;53.174;5.798;2022-08-01T04:56:58;30.08;;;4.80;;
53871;SDS011;39787;53.174;5.798;2022-08-01T04:57:58;22.63;;;4.50;;
53871;SDS011;39787;53.174;5.798;2022-08-01T04:58:59;23.33;;;3.90;;
53871;SDS011;39787;53.174;5.798;2022-08-01T04:59:59;22.80;;;4.33;;
53871;SDS011;39787;53.174;5.798;2022-08-01T05:01:00;23.83;;;5.10;;
53871;SDS011;39787;53.174;5.798;2022-08-01T05:02:00;17.77;;;3.60;;
53871;SDS011;39787;53.174;5.798;2022-08-01T05:03:01;23.57;;;3.83;;
53871;SDS011;39787;53.174;5.798;2022-08-01T05:04:01;21.93;;;4.30;;
53871;SDS011;39787;53.174;5.798;2022-08-01T05:05:02;27.05;;;4.63;;
53871;SDS011;39787;53.174;5.798;2022-08-01T05:06:03;28.13;;;4.68;;
53871;SDS011;39787;53.174;5.798;2022-08-01T05:07:04;28.07;;;5.03;;
53871;SDS011;39787;53.174;5.798;2022-08-01T05:08:04;22.13;;;4.33;;
53871;SDS011;39787;53.174;5.798;2022-08-01T05:09:05;22.67;;;4.03;;
53871;SDS011;39787;53.174;5.798;2022-08-01T05:10:05;21.93;;;3.93;;
53871;SDS011;39787;53.174;5.798;2022-08-01T05:11:06;25.15;;;4.90;;
53871;SDS011;39787;53.174;5.798;2022-08-01T05:12:07;27.47;;;5.50;;
53871;SDS011;39787;53.174;5.798;2022-08-01T05:13:08;24.65;;;4.95;;
53871;SDS011;39787;53.174;5.798;2022-08-01T05:14:08;19.80;;;4.22;;
53871;SDS011;39787;53.174;5.798;2022-08-01T05:15:09;19.00;;;3.97;;
53871;SDS011;39787;53.174;5.798;2022-08-01T05:16:09;23.33;;;4.73;;
53871;SDS011;39787;53.174;5.798;2022-08-01T05:17:10;19.67;;;4.50;;
53871;SDS011;39787;53.174;5.798;2022-08-01T05:18:10;29.23;;;4.73;;
53871;SDS011;39787;53.174;5.798;2022-08-01T05:19:11;24.30;;;3.80;;
53871;SDS011;39787;53.174;5.798;2022-08-01T05:20:12;33.53;;;5.25;;
53871;SDS011;39787;53.174;5.798;2022-08-01T05:21:12;17.53;;;4.43;;
53871;SDS011;39787;53.174;5.798;2022-08-01T05:22:13;29.50;;;5.30;;
53871;SDS011;39787;53.174;5.798;2022-08-01T05:23:13;24.57;;;4.67;;
53871;SDS011;39787;53.174;5.798;2022-08-01T05:24:14;24.77;;;4.70;;
53871;SDS011;39787;53.174;5.798;2022-08-01T05:25:14;26.50;;;4.70;;
53871;SDS011;39787;53.174;5.798;2022-08-01T05:26:15;23.43;;;4.77;;
53871;SDS011;39787;53.174;5.798;2022-08-01T05:27:15;27.70;;;5.13;;
53871;SDS011;39787;53.174;5.798;2022-08-01T05:28:16;22.27;;;4.67;;
53871;SDS011;39787;53.174;5.798;2022-08-01T05:29:16;23.43;;;4.40;;
53871;SDS011;39787;53.174;5.798;2022-08-01T05:30:17;23.57;;;3.97;;
53871;SDS011;39787;53.174;5.798;2022-08-01T05:31:17;21.93;;;4.17;;
53871;SDS011;39787;53.174;5.798;2022-08-01T05:32:18;24.03;;;4.17;;
53871;SDS011;39787;53.174;5.798;2022-08-01T05:33:18;23.70;;;3.93;;
53871;SDS011;39787;53.174;5.798;2022-08-01T05:34:19;26.33;;;4.37;;
53871;SDS011;39787;53.174;5.798;2022-08-01T05:35:20;26.65;;;5.38;;
53871;SDS011;39787;53.174;5.798;2022-08-01T05:36:20;28.93;;;5.23;;
53871;SDS011;39787;53.174;5.798;2022-08-01T05:37:21;20.90;;;4.30;;
53871;SDS011;39787;53.174;5.798;2022-08-01T05:38:21;24.63;;;4.70;;
53871;SDS011;39787;53.174;5.798;2022-08-01T05:39:22;20.73;;;4.40;;
53871;SDS011;39787;53.174;5.798;2022-08-01T05:40:22;25.13;;;4.90;;
53871;SDS011;39787;53.174;5.798;2022-08-01T05:41:23;24.57;;;5.10;;
53871;SDS011;39787;53.174;5.798;2022-08-01T05:42:23;27.77;;;4.80;;
53871;SDS011;39787;53.174;5.798;2022-08-01T05:43:24;31.23;;;5.50;;
53871;SDS011;39787;53.174;5.798;2022-08-01T05:44:24;25.47;;;5.20;;
53871;SDS011;39787;53.174;5.798;2022-08-01T05:45:25;24.70;;;4.30;;
53871;SDS011;39787;53.174;5.798;2022-08-01T05:46:25;19.60;;;4.00;;
53871;SDS011;39787;53.174;5.798;2022-08-01T05:47:26;26.53;;;4.20;;
53871;SDS011;39787;53.174;5.798;2022-08-01T05:48:26;26.57;;;5.20;;
53871;SDS011;39787;53.174;5.798;2022-08-01T05:49:27;21.40;;;4.23;;
53871;SDS011;39787;53.174;5.798;2022-08-01T05:50:27;20.13;;;4.07;;
53871;SDS011;39787;53.174;5.798;2022-08-01T05:51:28;21.00;;;4.43;;
53871;SDS011;39787;53.174;5.798;2022-08-01T05:52:29;25.92;;;4.88;;
53871;SDS011;39787;53.174;5.798;2022-08-01T05:53:29;20.70;;;3.33;;
53871;SDS011;39787;53.174;5.798;2022-08-01T05:54:30;17.57;;;3.57;;
53871;SDS011;39787;53.174;5.798;2022-08-01T05:55:31;25.17;;;4.63;;
53871;SDS011;39787;53.174;5.798;2022-08-01T05:56:31;26.60;;;5.10;;
53871;SDS011;39787;53.174;5.798;2022-08-01T05:57:32;21.07;;;4.60;;
53871;SDS011;39787;53.174;5.798;2022-08-01T05:58:32;20.13;;;4.63;;
53871;SDS011;39787;53.174;5.798;2022-08-01T05:59:33;22.80;;;4.73;;
53871;SDS011;39787;53.174;5.798;2022-08-01T06:00:33;25.73;;;4.73;;
53871;SDS011;39787;53.174;5.798;2022-08-01T06:01:34;29.30;;;5.03;;
53871;SDS011;39787;53.174;5.798;2022-08-01T06:02:34;18.07;;;4.13;;
53871;SDS011;39787;53.174;5.798;2022-08-01T06:03:40;21.52;;;4.28;;
53871;SDS011;39787;53.174;5.798;2022-08-01T06:04:40;19.93;;;4.37;;
53871;SDS011;39787;53.174;5.798;2022-08-01T06:05:41;23.70;;;4.77;;
53871;SDS011;39787;53.174;5.798;2022-08-01T06:06:41;21.43;;;3.43;;
53871;SDS011;39787;53.174;5.798;2022-08-01T06:07:42;24.67;;;4.03;;
53871;SDS011;39787;53.174;5.798;2022-08-01T06:08:42;25.93;;;4.03;;
53871;SDS011;39787;53.174;5.798;2022-08-01T06:09:43;24.93;;;4.47;;
53871;SDS011;39787;53.174;5.798;2022-08-01T06:10:43;22.30;;;4.00;;
53871;SDS011;39787;53.174;5.798;2022-08-01T06:11:44;24.10;;;4.57;;
53871;SDS011;39787;53.174;5.798;2022-08-01T06:12:44;18.67;;;4.47;;
53871;SDS011;39787;53.174;5.798;2022-08-01T06:13:45;15.77;;;3.47;;
53871;SDS011;39787;53.174;5.798;2022-08-01T06:14:45;16.40;;;3.73;;
53871;SDS011;39787;53.174;5.798;2022-08-01T06:15:46;22.07;;;4.23;;
53871;SDS011;39787;53.174;5.798;2022-08-01T06:16:46;16.30;;;3.17;;
53871;SDS011;39787;53.174;5.798;2022-08-01T06:17:46;21.93;;;3.10;;
53871;SDS011;39787;53.174;5.798;2022-08-01T06:18:47;23.27;;;4.73;;
53871;SDS011;39787;53.174;5.798;2022-08-01T06:19:47;19.30;;;3.50;;
53871;SDS011;39787;53.174;5.798;2022-08-01T06:20:48;19.67;;;4.20;;
53871;SDS011;39787;53.174;5.798;2022-08-01T06:21:48;17.40;;;3.83;;
53871;SDS011;39787;53.174;5.798;2022-08-01T06:22:49;20.90;;;4.43;;
53871;SDS011;39787;53.174;5.798;2022-08-01T06:23:49;16.57;;;3.63;;
53871;SDS011;39787;53.174;5.798;2022-08-01T06:24:50;14.73;;;3.70;;
53871;SDS011;39787;53.174;5.798;2022-08-01T06:25:53;25.45;;;4.35;;
53871;SDS011;39787;53.174;5.798;2022-08-01T06:26:54;17.95;;;3.55;;
53871;SDS011;39787;53.174;5.798;2022-08-01T06:27:54;18.07;;;3.47;;